This is the latest recevied weather packets stored in our database for station/object N4OOJ-13. If no packets are shown the sender has not sent any weather packets the latest 10 day(s).
| Time | Temp. | Humidity | Pressure | Rain* | Wind** | Luminosity | Snow |
|---|---|---|---|---|---|---|---|
| 1777500625 | 31.11° C | 54% | 1011.1 hPa | 0 mm | - | - | - |
| 1777500021 | 29.44° C | 57% | 1011.2 hPa | 0 mm | - | - | - |
| 1777499426 | 27.78° C | 62% | 1011.3 hPa | 0 mm | - | - | - |
| 1777498821 | 27.22° C | 63% | 1011.6 hPa | 0 mm | - | - | - |
| 1777498222 | 27.22° C | 64% | 1011.7 hPa | 0 mm | - | - | - |
| 1777497616 | 27.78° C | 62% | 1011.7 hPa | 0 mm | - | - | - |
| 1777497027 | 28.33° C | 60% | 1011.8 hPa | 0 mm | - | - | - |
| 1777496421 | 28.89° C | 57% | 1011.8 hPa | 0 mm | - | - | - |
| 1777495832 | 28.89° C | 58% | 1011.8 hPa | 0 mm | - | - | - |
| 1777495228 | 28.33° C | 59% | 1011.9 hPa | 0 mm | - | - | - |
| 1777494624 | 28.89° C | 58% | 1012 hPa | 0 mm | - | - | - |
| 1777494021 | 29.44° C | 56% | 1012.2 hPa | 0 mm | - | - | - |
| 1777493426 | 28.89° C | 58% | 1012.7 hPa | 0 mm | - | - | - |
| 1777492820 | 27.78° C | 63% | 1012.9 hPa | 0 mm | - | - | - |
| 1777492221 | 27.78° C | 64% | 1012.9 hPa | 0 mm | - | - | - |
| 1777491633 | 28.33° C | 62% | 1013.2 hPa | 0 mm | - | - | - |
| 1777491028 | 27.78° C | 61% | 1013.4 hPa | 0 mm | - | - | - |
| 1777490423 | 27.22° C | 65% | 1013.5 hPa | 0 mm | - | - | - |
| 1777489818 | 28.89° C | 60% | 1013.6 hPa | 0 mm | - | - | - |
| 1777489230 | 29.44° C | 57% | 1013.7 hPa | 0 mm | - | - | - |
| 1777488625 | 27.78° C | 61% | 1013.8 hPa | 0 mm | - | - | - |
| 1777488020 | 26.11° C | 66% | 1013.8 hPa | 0 mm | - | - | - |
| 1777487419 | 27.22° C | 64% | 1014 hPa | 0 mm | - | - | - |
| 1777486825 | 26.11° C | 67% | 1014.3 hPa | 0 mm | - | - | - |
| 1777486219 | 27.22° C | 63% | 1014.3 hPa | 0 mm | - | - | - |
* Rain latest hour (hover to see other rain measurements)
** Current wind speed in m/s (hover to see current wind gust speed)